Terminal Aerodrome Forecast
Issued by NWS

Home | Current Version | Previous Version | Text Only | Print | Product List | Glossary On
Versions: 1 2 3 4 5 6 7 8 9 10 11 12 13 14 15 16 17 18 19 20 21 22 23 24 25 26 27 28 29 30 31 32
000
FTUS45 KGJT 251629 AAA
TAFMTJ
TAF AMD
KMTJ 251629Z 2516/2612 02004KT P6SM SCT150
      TEMPO 2516/2517 -RA FEW070 BKN100
     FM251900 34006KT P6SM VCTS SCT090CB BKN130
      TEMPO 2520/2523 VRB20G30KT -TSRA FEW060 BKN090CB
     FM260100 15008KT P6SM VCTS SCT100CB BKN150
     FM260400 14007KT P6SM FEW120 BKN200=

USA.gov is the U.S. government's official web portal to all federal, state and local government web resources and services.